General Viamonte, Argentina
Current Conditions -  °F | °C
As of 6:00 AM on Thursday 23 Oct 2014 (Local Time) from SAOC Reporting Station
Clear Clear  
Wind Chill: 20°   Ceiling: Unl
Heat Index: 20°   Visibility: 6mi
Dew Point:   Wind: 9mph
Humidity: 46%   Direction: 340°NNW
Pressure: 29.91"   Gusts: NA
Location:  33.81°S, 62.97°W
Report Text: SAOC 230900Z 34008KT CAVOK 20/08 Q1013
Loading
Personal Weather Stations






























Interactive Weather Map
Tropical Storm Tracking
New forecast layout! Learn more

10-Day Weather Forecast

Advertisements
Track Severe Weather on mobile